sensor_id;sensor_type;location;lat;lon;timestamp;P1;durP1;ratioP1;P2;durP2;ratioP2
80481;SDS011;69797;43.864;21.410;2023-06-22T00:00:14;10.57;;;6.15;;
80481;SDS011;69797;43.864;21.410;2023-06-22T00:02:41;8.48;;;5.30;;
80481;SDS011;69797;43.864;21.410;2023-06-22T00:05:07;7.65;;;5.78;;
80481;SDS011;69797;43.864;21.410;2023-06-22T00:07:34;9.27;;;5.90;;
80481;SDS011;69797;43.864;21.410;2023-06-22T00:10:01;11.60;;;6.95;;
80481;SDS011;69797;43.864;21.410;2023-06-22T00:12:28;11.10;;;7.50;;
80481;SDS011;69797;43.864;21.410;2023-06-22T00:14:55;7.80;;;5.75;;
80481;SDS011;69797;43.864;21.410;2023-06-22T00:17:21;9.10;;;6.32;;
80481;SDS011;69797;43.864;21.410;2023-06-22T00:19:51;9.50;;;5.53;;
80481;SDS011;69797;43.864;21.410;2023-06-22T00:22:20;7.68;;;4.72;;
80481;SDS011;69797;43.864;21.410;2023-06-22T00:24:55;8.23;;;4.93;;
80481;SDS011;69797;43.864;21.410;2023-06-22T00:27:23;7.78;;;5.90;;
80481;SDS011;69797;43.864;21.410;2023-06-22T00:29:50;9.07;;;5.70;;
80481;SDS011;69797;43.864;21.410;2023-06-22T00:32:19;7.90;;;5.30;;
80481;SDS011;69797;43.864;21.410;2023-06-22T00:34:45;9.38;;;5.50;;
80481;SDS011;69797;43.864;21.410;2023-06-22T00:37:12;9.48;;;6.40;;
80481;SDS011;69797;43.864;21.410;2023-06-22T00:39:39;12.02;;;6.18;;
80481;SDS011;69797;43.864;21.410;2023-06-22T00:42:09;9.30;;;5.90;;
80481;SDS011;69797;43.864;21.410;2023-06-22T00:44:36;7.67;;;5.90;;
80481;SDS011;69797;43.864;21.410;2023-06-22T00:47:03;8.10;;;5.18;;
80481;SDS011;69797;43.864;21.410;2023-06-22T00:49:30;9.10;;;6.18;;
80481;SDS011;69797;43.864;21.410;2023-06-22T00:51:57;9.05;;;5.93;;
80481;SDS011;69797;43.864;21.410;2023-06-22T00:54:24;10.27;;;5.90;;
80481;SDS011;69797;43.864;21.410;2023-06-22T00:56:53;7.87;;;5.70;;
80481;SDS011;69797;43.864;21.410;2023-06-22T00:59:24;10.00;;;6.22;;
80481;SDS011;69797;43.864;21.410;2023-06-22T01:01:52;9.07;;;6.63;;
80481;SDS011;69797;43.864;21.410;2023-06-22T01:04:19;10.52;;;6.38;;
80481;SDS011;69797;43.864;21.410;2023-06-22T01:06:52;10.32;;;6.28;;
80481;SDS011;69797;43.864;21.410;2023-06-22T01:09:28;13.17;;;7.03;;
80481;SDS011;69797;43.864;21.410;2023-06-22T01:12:02;10.68;;;7.15;;
80481;SDS011;69797;43.864;21.410;2023-06-22T01:14:35;11.80;;;6.20;;
80481;SDS011;69797;43.864;21.410;2023-06-22T01:17:13;10.75;;;6.80;;
80481;SDS011;69797;43.864;21.410;2023-06-22T01:22:26;13.10;;;6.33;;
80481;SDS011;69797;43.864;21.410;2023-06-22T01:28:03;7.95;;;5.85;;
80481;SDS011;69797;43.864;21.410;2023-06-22T01:30:45;11.77;;;6.90;;
80481;SDS011;69797;43.864;21.410;2023-06-22T01:33:13;8.60;;;5.75;;
80481;SDS011;69797;43.864;21.410;2023-06-22T01:35:40;8.33;;;5.23;;
80481;SDS011;69797;43.864;21.410;2023-06-22T01:38:08;7.88;;;5.63;;
80481;SDS011;69797;43.864;21.410;2023-06-22T01:40:36;10.68;;;5.82;;
80481;SDS011;69797;43.864;21.410;2023-06-22T01:43:03;10.05;;;6.00;;
80481;SDS011;69797;43.864;21.410;2023-06-22T01:45:30;8.25;;;5.72;;
80481;SDS011;69797;43.864;21.410;2023-06-22T01:47:57;9.20;;;6.17;;
80481;SDS011;69797;43.864;21.410;2023-06-22T01:50:29;8.75;;;5.80;;
80481;SDS011;69797;43.864;21.410;2023-06-22T01:53:01;10.57;;;5.70;;
80481;SDS011;69797;43.864;21.410;2023-06-22T01:55:31;8.07;;;5.53;;
80481;SDS011;69797;43.864;21.410;2023-06-22T01:57:58;7.72;;;5.72;;
80481;SDS011;69797;43.864;21.410;2023-06-22T02:00:25;9.17;;;5.80;;
80481;SDS011;69797;43.864;21.410;2023-06-22T02:02:56;10.30;;;5.75;;
80481;SDS011;69797;43.864;21.410;2023-06-22T02:05:31;8.30;;;5.97;;
80481;SDS011;69797;43.864;21.410;2023-06-22T02:08:09;8.50;;;5.53;;
80481;SDS011;69797;43.864;21.410;2023-06-22T02:10:41;9.82;;;5.30;;
80481;SDS011;69797;43.864;21.410;2023-06-22T02:13:10;7.40;;;5.47;;
80481;SDS011;69797;43.864;21.410;2023-06-22T02:15:39;8.85;;;5.22;;
80481;SDS011;69797;43.864;21.410;2023-06-22T02:18:06;11.20;;;5.70;;
80481;SDS011;69797;43.864;21.410;2023-06-22T02:20:36;7.78;;;5.88;;
80481;SDS011;69797;43.864;21.410;2023-06-22T02:23:03;9.48;;;5.78;;
80481;SDS011;69797;43.864;21.410;2023-06-22T02:25:32;7.83;;;5.70;;
80481;SDS011;69797;43.864;21.410;2023-06-22T02:27:59;12.98;;;6.20;;
80481;SDS011;69797;43.864;21.410;2023-06-22T02:30:28;11.18;;;6.15;;
80481;SDS011;69797;43.864;21.410;2023-06-22T02:32:56;16.02;;;6.32;;
80481;SDS011;69797;43.864;21.410;2023-06-22T02:35:26;16.15;;;6.40;;
80481;SDS011;69797;43.864;21.410;2023-06-22T02:37:58;11.60;;;6.40;;
80481;SDS011;69797;43.864;21.410;2023-06-22T02:40:27;15.27;;;6.63;;
80481;SDS011;69797;43.864;21.410;2023-06-22T02:42:58;15.57;;;6.82;;
80481;SDS011;69797;43.864;21.410;2023-06-22T02:45:28;12.95;;;6.57;;
80481;SDS011;69797;43.864;21.410;2023-06-22T02:47:55;12.52;;;7.13;;
80481;SDS011;69797;43.864;21.410;2023-06-22T02:50:23;14.50;;;7.20;;
80481;SDS011;69797;43.864;21.410;2023-06-22T02:52:50;16.42;;;6.97;;
80481;SDS011;69797;43.864;21.410;2023-06-22T02:55:17;17.08;;;7.53;;
80481;SDS011;69797;43.864;21.410;2023-06-22T02:57:44;12.40;;;7.47;;
80481;SDS011;69797;43.864;21.410;2023-06-22T03:00:14;13.93;;;7.85;;
80481;SDS011;69797;43.864;21.410;2023-06-22T03:02:44;12.70;;;7.43;;
80481;SDS011;69797;43.864;21.410;2023-06-22T03:05:11;12.52;;;7.82;;
80481;SDS011;69797;43.864;21.410;2023-06-22T03:07:40;16.52;;;7.30;;
80481;SDS011;69797;43.864;21.410;2023-06-22T03:10:08;19.95;;;7.80;;
80481;SDS011;69797;43.864;21.410;2023-06-22T03:12:37;13.40;;;7.88;;
80481;SDS011;69797;43.864;21.410;2023-06-22T03:15:05;11.50;;;7.03;;
80481;SDS011;69797;43.864;21.410;2023-06-22T03:17:33;10.77;;;7.28;;
80481;SDS011;69797;43.864;21.410;2023-06-22T03:20:02;12.68;;;8.10;;
80481;SDS011;69797;43.864;21.410;2023-06-22T03:22:38;13.10;;;7.32;;
80481;SDS011;69797;43.864;21.410;2023-06-22T03:25:06;13.48;;;9.68;;
80481;SDS011;69797;43.864;21.410;2023-06-22T03:27:40;14.67;;;8.90;;
80481;SDS011;69797;43.864;21.410;2023-06-22T03:30:08;12.82;;;8.18;;
80481;SDS011;69797;43.864;21.410;2023-06-22T03:32:39;12.00;;;7.78;;
80481;SDS011;69797;43.864;21.410;2023-06-22T03:35:06;13.05;;;7.28;;
80481;SDS011;69797;43.864;21.410;2023-06-22T03:37:33;15.82;;;8.75;;
80481;SDS011;69797;43.864;21.410;2023-06-22T03:40:00;11.43;;;6.93;;
80481;SDS011;69797;43.864;21.410;2023-06-22T03:42:27;13.30;;;7.00;;
80481;SDS011;69797;43.864;21.410;2023-06-22T03:44:54;12.73;;;7.57;;
80481;SDS011;69797;43.864;21.410;2023-06-22T03:47:25;12.95;;;7.07;;
80481;SDS011;69797;43.864;21.410;2023-06-22T03:49:52;12.23;;;6.75;;
80481;SDS011;69797;43.864;21.410;2023-06-22T03:52:21;9.43;;;6.67;;
80481;SDS011;69797;43.864;21.410;2023-06-22T03:54:51;17.00;;;6.80;;
80481;SDS011;69797;43.864;21.410;2023-06-22T03:57:18;11.02;;;6.80;;
80481;SDS011;69797;43.864;21.410;2023-06-22T03:59:44;9.18;;;6.05;;
80481;SDS011;69797;43.864;21.410;2023-06-22T04:02:11;9.23;;;6.20;;
80481;SDS011;69797;43.864;21.410;2023-06-22T04:04:40;10.90;;;6.90;;
80481;SDS011;69797;43.864;21.410;2023-06-22T04:07:07;10.82;;;6.70;;
80481;SDS011;69797;43.864;21.410;2023-06-22T04:09:37;10.60;;;6.72;;
80481;SDS011;69797;43.864;21.410;2023-06-22T04:12:04;13.02;;;7.32;;
80481;SDS011;69797;43.864;21.410;2023-06-22T04:14:31;11.02;;;6.30;;
80481;SDS011;69797;43.864;21.410;2023-06-22T04:16:58;10.33;;;6.20;;
80481;SDS011;69797;43.864;21.410;2023-06-22T04:19:25;12.10;;;7.55;;
80481;SDS011;69797;43.864;21.410;2023-06-22T04:21:52;10.60;;;7.35;;
80481;SDS011;69797;43.864;21.410;2023-06-22T04:24:19;13.65;;;7.22;;
80481;SDS011;69797;43.864;21.410;2023-06-22T04:26:45;10.45;;;7.90;;
80481;SDS011;69797;43.864;21.410;2023-06-22T04:29:15;18.87;;;7.83;;
80481;SDS011;69797;43.864;21.410;2023-06-22T04:31:42;9.30;;;7.10;;
80481;SDS011;69797;43.864;21.410;2023-06-22T04:34:09;10.10;;;8.02;;
80481;SDS011;69797;43.864;21.410;2023-06-22T04:36:37;10.98;;;7.68;;
80481;SDS011;69797;43.864;21.410;2023-06-22T04:39:11;10.25;;;7.30;;
80481;SDS011;69797;43.864;21.410;2023-06-22T04:41:39;9.07;;;7.30;;
80481;SDS011;69797;43.864;21.410;2023-06-22T04:44:16;13.15;;;7.80;;
80481;SDS011;69797;43.864;21.410;2023-06-22T04:46:54;12.75;;;7.32;;
80481;SDS011;69797;43.864;21.410;2023-06-22T04:49:35;13.38;;;7.75;;
80481;SDS011;69797;43.864;21.410;2023-06-22T04:52:07;8.82;;;7.22;;
80481;SDS011;69797;43.864;21.410;2023-06-22T04:54:35;8.83;;;7.60;;
80481;SDS011;69797;43.864;21.410;2023-06-22T04:57:04;11.18;;;7.80;;
80481;SDS011;69797;43.864;21.410;2023-06-22T04:59:37;13.60;;;8.70;;
80481;SDS011;69797;43.864;21.410;2023-06-22T05:02:08;12.95;;;7.82;;
80481;SDS011;69797;43.864;21.410;2023-06-22T05:04:37;10.52;;;8.27;;
80481;SDS011;69797;43.864;21.410;2023-06-22T05:07:09;10.90;;;7.43;;
80481;SDS011;69797;43.864;21.410;2023-06-22T05:09:36;11.00;;;7.13;;
80481;SDS011;69797;43.864;21.410;2023-06-22T05:12:03;12.05;;;8.00;;
80481;SDS011;69797;43.864;21.410;2023-06-22T05:14:34;12.93;;;9.38;;
80481;SDS011;69797;43.864;21.410;2023-06-22T05:17:01;12.43;;;9.07;;
80481;SDS011;69797;43.864;21.410;2023-06-22T05:19:30;10.37;;;8.13;;
80481;SDS011;69797;43.864;21.410;2023-06-22T05:22:00;14.13;;;7.55;;
80481;SDS011;69797;43.864;21.410;2023-06-22T05:24:28;10.95;;;8.65;;
80481;SDS011;69797;43.864;21.410;2023-06-22T05:26:57;14.82;;;9.93;;
80481;SDS011;69797;43.864;21.410;2023-06-22T05:29:24;13.05;;;8.38;;
80481;SDS011;69797;43.864;21.410;2023-06-22T05:31:53;11.53;;;8.23;;
80481;SDS011;69797;43.864;21.410;2023-06-22T05:34:20;10.55;;;7.47;;
80481;SDS011;69797;43.864;21.410;2023-06-22T05:36:47;11.20;;;7.25;;
80481;SDS011;69797;43.864;21.410;2023-06-22T05:39:14;9.77;;;7.90;;
80481;SDS011;69797;43.864;21.410;2023-06-22T05:41:41;12.98;;;8.23;;
80481;SDS011;69797;43.864;21.410;2023-06-22T05:44:11;11.40;;;8.40;;
80481;SDS011;69797;43.864;21.410;2023-06-22T05:46:42;13.13;;;7.95;;
80481;SDS011;69797;43.864;21.410;2023-06-22T05:49:11;11.50;;;9.68;;
80481;SDS011;69797;43.864;21.410;2023-06-22T05:51:39;9.98;;;8.63;;
80481;SDS011;69797;43.864;21.410;2023-06-22T05:54:06;14.15;;;9.50;;
80481;SDS011;69797;43.864;21.410;2023-06-22T05:56:34;10.20;;;8.63;;
80481;SDS011;69797;43.864;21.410;2023-06-22T05:59:01;11.18;;;8.98;;
80481;SDS011;69797;43.864;21.410;2023-06-22T06:01:28;12.48;;;8.55;;
80481;SDS011;69797;43.864;21.410;2023-06-22T06:03:55;10.55;;;9.55;;
80481;SDS011;69797;43.864;21.410;2023-06-22T06:06:21;12.93;;;9.45;;
80481;SDS011;69797;43.864;21.410;2023-06-22T06:08:55;12.27;;;9.37;;
80481;SDS011;69797;43.864;21.410;2023-06-22T06:11:22;12.55;;;10.88;;
80481;SDS011;69797;43.864;21.410;2023-06-22T06:13:49;13.35;;;9.30;;
80481;SDS011;69797;43.864;21.410;2023-06-22T06:16:16;12.68;;;9.73;;
80481;SDS011;69797;43.864;21.410;2023-06-22T06:18:42;10.38;;;9.48;;
80481;SDS011;69797;43.864;21.410;2023-06-22T06:21:11;12.53;;;10.57;;
80481;SDS011;69797;43.864;21.410;2023-06-22T06:23:38;11.13;;;9.98;;
80481;SDS011;69797;43.864;21.410;2023-06-22T06:26:05;10.98;;;10.02;;
80481;SDS011;69797;43.864;21.410;2023-06-22T06:28:34;11.10;;;10.20;;
80481;SDS011;69797;43.864;21.410;2023-06-22T06:31:02;10.68;;;9.70;;
80481;SDS011;69797;43.864;21.410;2023-06-22T06:33:29;10.13;;;9.23;;
80481;SDS011;69797;43.864;21.410;2023-06-22T06:35:57;12.43;;;11.25;;
80481;SDS011;69797;43.864;21.410;2023-06-22T06:38:24;12.65;;;10.77;;
80481;SDS011;69797;43.864;21.410;2023-06-22T06:40:51;11.40;;;10.30;;
80481;SDS011;69797;43.864;21.410;2023-06-22T06:43:20;11.88;;;10.32;;
80481;SDS011;69797;43.864;21.410;2023-06-22T06:45:47;11.53;;;10.33;;
80481;SDS011;69797;43.864;21.410;2023-06-22T06:48:17;14.93;;;11.13;;
80481;SDS011;69797;43.864;21.410;2023-06-22T06:50:44;12.40;;;10.43;;
80481;SDS011;69797;43.864;21.410;2023-06-22T06:53:11;12.93;;;11.68;;
80481;SDS011;69797;43.864;21.410;2023-06-22T06:55:38;11.02;;;10.13;;
80481;SDS011;69797;43.864;21.410;2023-06-22T06:58:08;11.00;;;9.97;;
80481;SDS011;69797;43.864;21.410;2023-06-22T07:00:36;11.98;;;10.80;;
80481;SDS011;69797;43.864;21.410;2023-06-22T07:03:03;12.10;;;10.70;;
80481;SDS011;69797;43.864;21.410;2023-06-22T07:05:31;15.43;;;10.70;;
80481;SDS011;69797;43.864;21.410;2023-06-22T07:07:57;12.80;;;11.65;;
80481;SDS011;69797;43.864;21.410;2023-06-22T07:10:24;12.80;;;11.70;;
80481;SDS011;69797;43.864;21.410;2023-06-22T07:12:51;12.88;;;11.73;;
80481;SDS011;69797;43.864;21.410;2023-06-22T07:15:18;13.07;;;11.95;;
80481;SDS011;69797;43.864;21.410;2023-06-22T07:17:45;12.00;;;10.98;;
80481;SDS011;69797;43.864;21.410;2023-06-22T07:20:12;13.00;;;11.88;;
80481;SDS011;69797;43.864;21.410;2023-06-22T07:22:42;11.97;;;10.93;;
80481;SDS011;69797;43.864;21.410;2023-06-22T07:25:09;12.73;;;11.60;;
80481;SDS011;69797;43.864;21.410;2023-06-22T07:27:44;13.55;;;12.27;;
80481;SDS011;69797;43.864;21.410;2023-06-22T07:30:29;13.38;;;12.15;;
80481;SDS011;69797;43.864;21.410;2023-06-22T07:32:59;13.85;;;12.60;;
80481;SDS011;69797;43.864;21.410;2023-06-22T07:35:31;12.20;;;11.07;;
80481;SDS011;69797;43.864;21.410;2023-06-22T07:37:58;14.00;;;12.80;;
80481;SDS011;69797;43.864;21.410;2023-06-22T07:40:30;13.88;;;12.68;;
80481;SDS011;69797;43.864;21.410;2023-06-22T07:42:57;13.10;;;11.80;;
80481;SDS011;69797;43.864;21.410;2023-06-22T07:45:24;13.02;;;11.70;;
80481;SDS011;69797;43.864;21.410;2023-06-22T07:47:51;12.73;;;11.53;;
80481;SDS011;69797;43.864;21.410;2023-06-22T07:50:18;13.20;;;12.00;;
80481;SDS011;69797;43.864;21.410;2023-06-22T07:52:44;13.35;;;12.15;;
80481;SDS011;69797;43.864;21.410;2023-06-22T07:55:12;12.13;;;11.18;;
80481;SDS011;69797;43.864;21.410;2023-06-22T07:57:39;13.05;;;11.70;;
80481;SDS011;69797;43.864;21.410;2023-06-22T08:00:08;12.50;;;11.40;;
80481;SDS011;69797;43.864;21.410;2023-06-22T08:02:44;12.05;;;10.85;;
80481;SDS011;69797;43.864;21.410;2023-06-22T08:05:13;13.63;;;12.50;;
80481;SDS011;69797;43.864;21.410;2023-06-22T08:07:47;13.40;;;12.20;;
80481;SDS011;69797;43.864;21.410;2023-06-22T08:10:14;13.43;;;12.32;;
80481;SDS011;69797;43.864;21.410;2023-06-22T08:12:42;14.47;;;12.47;;
80481;SDS011;69797;43.864;21.410;2023-06-22T08:15:09;13.50;;;12.30;;
80481;SDS011;69797;43.864;21.410;2023-06-22T08:17:38;14.13;;;13.07;;
80481;SDS011;69797;43.864;21.410;2023-06-22T08:20:06;12.20;;;11.20;;
80481;SDS011;69797;43.864;21.410;2023-06-22T08:22:41;13.55;;;12.55;;
80481;SDS011;69797;43.864;21.410;2023-06-22T08:25:09;11.63;;;10.73;;
80481;SDS011;69797;43.864;21.410;2023-06-22T08:27:38;13.13;;;12.02;;
80481;SDS011;69797;43.864;21.410;2023-06-22T08:30:05;13.57;;;12.38;;
80481;SDS011;69797;43.864;21.410;2023-06-22T08:32:34;13.52;;;12.48;;
80481;SDS011;69797;43.864;21.410;2023-06-22T08:35:01;13.55;;;12.65;;
80481;SDS011;69797;43.864;21.410;2023-06-22T08:37:27;13.17;;;12.17;;
80481;SDS011;69797;43.864;21.410;2023-06-22T08:40:04;14.60;;;13.48;;
80481;SDS011;69797;43.864;21.410;2023-06-22T08:42:37;14.10;;;12.82;;
80481;SDS011;69797;43.864;21.410;2023-06-22T08:45:06;13.88;;;12.77;;
80481;SDS011;69797;43.864;21.410;2023-06-22T08:47:33;14.60;;;13.50;;
80481;SDS011;69797;43.864;21.410;2023-06-22T08:50:02;14.60;;;13.33;;
80481;SDS011;69797;43.864;21.410;2023-06-22T08:52:30;14.70;;;13.60;;
80481;SDS011;69797;43.864;21.410;2023-06-22T08:54:57;14.80;;;13.70;;
80481;SDS011;69797;43.864;21.410;2023-06-22T08:57:27;13.93;;;12.80;;
80481;SDS011;69797;43.864;21.410;2023-06-22T08:59:55;15.48;;;14.20;;
80481;SDS011;69797;43.864;21.410;2023-06-22T09:02:25;15.63;;;14.33;;
80481;SDS011;69797;43.864;21.410;2023-06-22T09:05:03;13.98;;;12.68;;
80481;SDS011;69797;43.864;21.410;2023-06-22T09:07:30;14.40;;;13.30;;
80481;SDS011;69797;43.864;21.410;2023-06-22T09:09:57;14.43;;;13.25;;
80481;SDS011;69797;43.864;21.410;2023-06-22T09:12:25;14.93;;;13.43;;
80481;SDS011;69797;43.864;21.410;2023-06-22T09:14:53;14.90;;;13.70;;
80481;SDS011;69797;43.864;21.410;2023-06-22T09:17:20;14.38;;;13.10;;
80481;SDS011;69797;43.864;21.410;2023-06-22T09:19:47;15.15;;;13.95;;
80481;SDS011;69797;43.864;21.410;2023-06-22T09:22:14;11.32;;;10.32;;
80481;SDS011;69797;43.864;21.410;2023-06-22T09:24:41;10.15;;;9.15;;
80481;SDS011;69797;43.864;21.410;2023-06-22T09:27:08;10.40;;;9.30;;
80481;SDS011;69797;43.864;21.410;2023-06-22T09:29:35;10.13;;;9.13;;
80481;SDS011;69797;43.864;21.410;2023-06-22T09:32:02;10.10;;;9.20;;
80481;SDS011;69797;43.864;21.410;2023-06-22T09:34:29;10.45;;;9.00;;
80481;SDS011;69797;43.864;21.410;2023-06-22T09:36:58;10.25;;;9.25;;
80481;SDS011;69797;43.864;21.410;2023-06-22T09:39:27;9.53;;;8.60;;
80481;SDS011;69797;43.864;21.410;2023-06-22T09:41:53;12.52;;;9.68;;
80481;SDS011;69797;43.864;21.410;2023-06-22T09:44:22;10.57;;;9.18;;
80481;SDS011;69797;43.864;21.410;2023-06-22T09:46:49;11.15;;;8.13;;
80481;SDS011;69797;43.864;21.410;2023-06-22T09:49:16;8.85;;;7.57;;
80481;SDS011;69797;43.864;21.410;2023-06-22T09:51:43;8.53;;;7.57;;
80481;SDS011;69797;43.864;21.410;2023-06-22T09:54:10;8.65;;;7.75;;
80481;SDS011;69797;43.864;21.410;2023-06-22T09:56:36;8.65;;;7.68;;
80481;SDS011;69797;43.864;21.410;2023-06-22T09:59:04;8.65;;;7.75;;
80481;SDS011;69797;43.864;21.410;2023-06-22T10:01:43;9.20;;;8.30;;
80481;SDS011;69797;43.864;21.410;2023-06-22T10:04:10;9.47;;;8.23;;
80481;SDS011;69797;43.864;21.410;2023-06-22T10:06:37;9.82;;;7.95;;
80481;SDS011;69797;43.864;21.410;2023-06-22T10:09:07;10.25;;;8.45;;
80481;SDS011;69797;43.864;21.410;2023-06-22T10:11:34;9.45;;;8.50;;
80481;SDS011;69797;43.864;21.410;2023-06-22T10:14:04;13.63;;;8.90;;
80481;SDS011;69797;43.864;21.410;2023-06-22T10:16:31;9.00;;;8.03;;
80481;SDS011;69797;43.864;21.410;2023-06-22T10:18:58;11.45;;;8.50;;
80481;SDS011;69797;43.864;21.410;2023-06-22T10:21:29;10.23;;;8.38;;
80481;SDS011;69797;43.864;21.410;2023-06-22T10:23:58;11.25;;;8.50;;
80481;SDS011;69797;43.864;21.410;2023-06-22T10:26:28;9.07;;;8.07;;
80481;SDS011;69797;43.864;21.410;2023-06-22T10:28:55;10.10;;;8.17;;
80481;SDS011;69797;43.864;21.410;2023-06-22T10:31:41;11.02;;;7.68;;
80481;SDS011;69797;43.864;21.410;2023-06-22T10:34:08;9.75;;;7.80;;
80481;SDS011;69797;43.864;21.410;2023-06-22T10:36:35;8.73;;;7.68;;
80481;SDS011;69797;43.864;21.410;2023-06-22T10:39:02;9.05;;;7.47;;
80481;SDS011;69797;43.864;21.410;2023-06-22T10:41:29;8.00;;;7.20;;
80481;SDS011;69797;43.864;21.410;2023-06-22T10:43:57;15.60;;;8.00;;
80481;SDS011;69797;43.864;21.410;2023-06-22T10:46:24;8.95;;;7.18;;
80481;SDS011;69797;43.864;21.410;2023-06-22T10:48:52;7.75;;;6.95;;
80481;SDS011;69797;43.864;21.410;2023-06-22T10:51:21;9.52;;;7.80;;
80481;SDS011;69797;43.864;21.410;2023-06-22T10:53:48;10.90;;;7.30;;
80481;SDS011;69797;43.864;21.410;2023-06-22T10:56:15;8.00;;;7.15;;
80481;SDS011;69797;43.864;21.410;2023-06-22T10:58:42;11.30;;;7.93;;
80481;SDS011;69797;43.864;21.410;2023-06-22T11:01:11;9.80;;;6.90;;
80481;SDS011;69797;43.864;21.410;2023-06-22T11:03:58;8.38;;;7.47;;
80481;SDS011;69797;43.864;21.410;2023-06-22T11:06:25;9.47;;;7.53;;
80481;SDS011;69797;43.864;21.410;2023-06-22T11:08:52;8.50;;;7.32;;
80481;SDS011;69797;43.864;21.410;2023-06-22T11:11:31;8.93;;;7.55;;
80481;SDS011;69797;43.864;21.410;2023-06-22T11:13:58;8.88;;;7.50;;
80481;SDS011;69797;43.864;21.410;2023-06-22T11:16:25;9.95;;;7.68;;
80481;SDS011;69797;43.864;21.410;2023-06-22T11:18:52;8.47;;;7.53;;
80481;SDS011;69797;43.864;21.410;2023-06-22T11:21:19;9.65;;;7.68;;
80481;SDS011;69797;43.864;21.410;2023-06-22T11:23:45;9.23;;;7.65;;
80481;SDS011;69797;43.864;21.410;2023-06-22T11:26:12;9.30;;;7.72;;
80481;SDS011;69797;43.864;21.410;2023-06-22T11:28:39;9.80;;;8.02;;
80481;SDS011;69797;43.864;21.410;2023-06-22T11:31:08;10.10;;;7.00;;
80481;SDS011;69797;43.864;21.410;2023-06-22T11:33:51;9.43;;;6.85;;
80481;SDS011;69797;43.864;21.410;2023-06-22T11:36:18;8.88;;;7.05;;
80481;SDS011;69797;43.864;21.410;2023-06-22T11:38:45;9.10;;;7.50;;
80481;SDS011;69797;43.864;21.410;2023-06-22T11:41:12;10.05;;;7.57;;
80481;SDS011;69797;43.864;21.410;2023-06-22T11:43:40;9.77;;;7.40;;
80481;SDS011;69797;43.864;21.410;2023-06-22T11:46:09;10.00;;;7.28;;
80481;SDS011;69797;43.864;21.410;2023-06-22T11:48:37;9.77;;;6.97;;
80481;SDS011;69797;43.864;21.410;2023-06-22T11:51:04;10.35;;;7.38;;
80481;SDS011;69797;43.864;21.410;2023-06-22T11:53:32;10.32;;;7.22;;
80481;SDS011;69797;43.864;21.410;2023-06-22T11:56:00;9.00;;;6.13;;
80481;SDS011;69797;43.864;21.410;2023-06-22T11:58:27;8.70;;;7.32;;
80481;SDS011;69797;43.864;21.410;2023-06-22T12:00:54;7.28;;;6.35;;
80481;SDS011;69797;43.864;21.410;2023-06-22T12:03:22;7.43;;;6.57;;
80481;SDS011;69797;43.864;21.410;2023-06-22T12:05:49;8.45;;;6.78;;
80481;SDS011;69797;43.864;21.410;2023-06-22T12:08:18;9.20;;;6.80;;
80481;SDS011;69797;43.864;21.410;2023-06-22T12:10:45;8.60;;;7.07;;
80481;SDS011;69797;43.864;21.410;2023-06-22T12:13:12;8.18;;;6.93;;
80481;SDS011;69797;43.864;21.410;2023-06-22T12:15:39;8.75;;;7.25;;
80481;SDS011;69797;43.864;21.410;2023-06-22T12:18:06;8.27;;;7.30;;
80481;SDS011;69797;43.864;21.410;2023-06-22T12:20:33;7.93;;;6.67;;
80481;SDS011;69797;43.864;21.410;2023-06-22T12:23:02;8.60;;;7.60;;
80481;SDS011;69797;43.864;21.410;2023-06-22T12:25:29;9.40;;;7.22;;
80481;SDS011;69797;43.864;21.410;2023-06-22T12:27:56;8.32;;;7.18;;
80481;SDS011;69797;43.864;21.410;2023-06-22T12:30:22;7.63;;;6.85;;
80481;SDS011;69797;43.864;21.410;2023-06-22T12:32:49;8.37;;;7.27;;
80481;SDS011;69797;43.864;21.410;2023-06-22T12:35:20;8.52;;;6.97;;
80481;SDS011;69797;43.864;21.410;2023-06-22T12:37:47;8.27;;;7.30;;
80481;SDS011;69797;43.864;21.410;2023-06-22T12:40:14;9.75;;;7.10;;
80481;SDS011;69797;43.864;21.410;2023-06-22T12:42:40;9.52;;;7.15;;
80481;SDS011;69797;43.864;21.410;2023-06-22T12:45:08;8.13;;;6.50;;
80481;SDS011;69797;43.864;21.410;2023-06-22T12:47:36;9.07;;;6.93;;
80481;SDS011;69797;43.864;21.410;2023-06-22T12:50:04;9.98;;;7.30;;
80481;SDS011;69797;43.864;21.410;2023-06-22T12:52:31;8.50;;;7.07;;
80481;SDS011;69797;43.864;21.410;2023-06-22T12:55:01;7.78;;;6.97;;
80481;SDS011;69797;43.864;21.410;2023-06-22T12:57:28;8.07;;;7.27;;
80481;SDS011;69797;43.864;21.410;2023-06-22T12:59:54;9.52;;;7.15;;
80481;SDS011;69797;43.864;21.410;2023-06-22T13:02:21;10.43;;;7.20;;
80481;SDS011;69797;43.864;21.410;2023-06-22T13:04:48;7.47;;;6.10;;
80481;SDS011;69797;43.864;21.410;2023-06-22T13:07:15;10.68;;;7.15;;
80481;SDS011;69797;43.864;21.410;2023-06-22T13:09:49;8.80;;;7.07;;
80481;SDS011;69797;43.864;21.410;2023-06-22T13:12:20;10.05;;;6.78;;
80481;SDS011;69797;43.864;21.410;2023-06-22T13:14:47;8.15;;;7.15;;
80481;SDS011;69797;43.864;21.410;2023-06-22T13:17:14;9.38;;;7.05;;
80481;SDS011;69797;43.864;21.410;2023-06-22T13:19:41;10.77;;;7.45;;
80481;SDS011;69797;43.864;21.410;2023-06-22T13:24:55;8.48;;;6.50;;
80481;SDS011;69797;43.864;21.410;2023-06-22T13:27:23;9.15;;;7.30;;
80481;SDS011;69797;43.864;21.410;2023-06-22T13:29:50;7.72;;;6.10;;
80481;SDS011;69797;43.864;21.410;2023-06-22T13:32:18;9.50;;;6.57;;
80481;SDS011;69797;43.864;21.410;2023-06-22T13:34:44;8.10;;;6.70;;
80481;SDS011;69797;43.864;21.410;2023-06-22T13:37:14;9.45;;;6.90;;
80481;SDS011;69797;43.864;21.410;2023-06-22T13:39:41;11.75;;;7.53;;
80481;SDS011;69797;43.864;21.410;2023-06-22T13:42:08;12.40;;;7.03;;
80481;SDS011;69797;43.864;21.410;2023-06-22T13:44:35;10.27;;;6.65;;
80481;SDS011;69797;43.864;21.410;2023-06-22T13:47:02;10.73;;;7.00;;
80481;SDS011;69797;43.864;21.410;2023-06-22T13:49:29;8.93;;;6.85;;
80481;SDS011;69797;43.864;21.410;2023-06-22T13:51:56;13.30;;;7.30;;
80481;SDS011;69797;43.864;21.410;2023-06-22T13:54:22;11.30;;;6.80;;
80481;SDS011;69797;43.864;21.410;2023-06-22T13:56:55;11.05;;;7.53;;
80481;SDS011;69797;43.864;21.410;2023-06-22T13:59:22;12.27;;;7.17;;
80481;SDS011;69797;43.864;21.410;2023-06-22T14:01:49;11.05;;;7.65;;
80481;SDS011;69797;43.864;21.410;2023-06-22T14:04:16;10.38;;;7.45;;
80481;SDS011;69797;43.864;21.410;2023-06-22T14:06:43;13.85;;;8.50;;
80481;SDS011;69797;43.864;21.410;2023-06-22T14:09:10;10.50;;;6.88;;
80481;SDS011;69797;43.864;21.410;2023-06-22T14:11:36;10.73;;;7.87;;
80481;SDS011;69797;43.864;21.410;2023-06-22T14:14:04;9.85;;;7.10;;
80481;SDS011;69797;43.864;21.410;2023-06-22T14:16:30;8.40;;;7.40;;
80481;SDS011;69797;43.864;21.410;2023-06-22T14:18:57;8.68;;;7.20;;
80481;SDS011;69797;43.864;21.410;2023-06-22T14:21:25;8.95;;;7.28;;
80481;SDS011;69797;43.864;21.410;2023-06-22T14:23:52;9.90;;;6.83;;
80481;SDS011;69797;43.864;21.410;2023-06-22T14:26:19;10.98;;;7.30;;
80481;SDS011;69797;43.864;21.410;2023-06-22T14:28:46;8.75;;;6.90;;
80481;SDS011;69797;43.864;21.410;2023-06-22T14:31:15;9.45;;;7.68;;
80481;SDS011;69797;43.864;21.410;2023-06-22T14:33:46;9.48;;;7.90;;
80481;SDS011;69797;43.864;21.410;2023-06-22T14:36:15;8.37;;;7.17;;
80481;SDS011;69797;43.864;21.410;2023-06-22T14:38:42;8.80;;;7.88;;